Terminal Aerodrome Forecast
Issued by NWS Twin Cities, MN

Home | Current Version | Previous Version | Text Only | Print | Product List | Glossary On
Versions: 1 2 3 4 5 6 7 8 9 10 11 12 13 14
085
FTUS43 KMPX 240520
TAFEAU
TAF
KEAU 240520Z 2406/2506 12003KT 4SM -RA BR SCT007 OVC012
     FM240900 VRB03KT 2SM -RA BR OVC006
     FM241700 03006KT 3SM -RA BR OVC010
     FM242100 03009KT P6SM OVC015=

USA.gov is the U.S. government's official web portal to all federal, state and local government web resources and services.